sensor_id;sensor_type;location;lat;lon;timestamp;P1;durP1;ratioP1;P2;durP2;ratioP2
29838;SDS011;18669;53.356;-1.464;2023-07-02T00:01:22;18.83;;;5.25;;
29838;SDS011;18669;53.356;-1.464;2023-07-02T00:04:07;15.57;;;4.68;;
29838;SDS011;18669;53.356;-1.464;2023-07-02T00:06:53;16.58;;;4.63;;
29838;SDS011;18669;53.356;-1.464;2023-07-02T00:09:37;16.63;;;4.88;;
29838;SDS011;18669;53.356;-1.464;2023-07-02T00:12:22;14.82;;;4.68;;
29838;SDS011;18669;53.356;-1.464;2023-07-02T00:15:07;21.70;;;5.55;;
29838;SDS011;18669;53.356;-1.464;2023-07-02T00:17:52;19.50;;;4.97;;
29838;SDS011;18669;53.356;-1.464;2023-07-02T00:20:40;17.63;;;4.85;;
29838;SDS011;18669;53.356;-1.464;2023-07-02T00:23:25;13.90;;;4.60;;
29838;SDS011;18669;53.356;-1.464;2023-07-02T00:26:10;15.55;;;4.75;;
29838;SDS011;18669;53.356;-1.464;2023-07-02T00:28:55;15.85;;;4.47;;
29838;SDS011;18669;53.356;-1.464;2023-07-02T00:31:40;12.93;;;4.43;;
29838;SDS011;18669;53.356;-1.464;2023-07-02T00:34:25;17.10;;;5.05;;
29838;SDS011;18669;53.356;-1.464;2023-07-02T00:37:10;16.73;;;4.10;;
29838;SDS011;18669;53.356;-1.464;2023-07-02T00:39:55;14.30;;;4.65;;
29838;SDS011;18669;53.356;-1.464;2023-07-02T00:42:40;19.23;;;4.82;;
29838;SDS011;18669;53.356;-1.464;2023-07-02T00:45:25;14.60;;;4.38;;
29838;SDS011;18669;53.356;-1.464;2023-07-02T00:48:10;16.55;;;4.50;;
29838;SDS011;18669;53.356;-1.464;2023-07-02T00:50:55;14.57;;;3.72;;
29838;SDS011;18669;53.356;-1.464;2023-07-02T00:53:40;16.10;;;4.03;;
29838;SDS011;18669;53.356;-1.464;2023-07-02T00:56:26;15.77;;;3.88;;
29838;SDS011;18669;53.356;-1.464;2023-07-02T00:59:11;14.43;;;3.65;;
29838;SDS011;18669;53.356;-1.464;2023-07-02T01:01:56;12.48;;;3.50;;
29838;SDS011;18669;53.356;-1.464;2023-07-02T01:04:41;21.27;;;4.45;;
29838;SDS011;18669;53.356;-1.464;2023-07-02T01:07:26;14.38;;;3.92;;
29838;SDS011;18669;53.356;-1.464;2023-07-02T01:10:11;12.80;;;3.47;;
29838;SDS011;18669;53.356;-1.464;2023-07-02T01:12:55;14.65;;;3.78;;
29838;SDS011;18669;53.356;-1.464;2023-07-02T01:15:40;9.88;;;3.95;;
29838;SDS011;18669;53.356;-1.464;2023-07-02T01:18:27;14.13;;;3.55;;
29838;SDS011;18669;53.356;-1.464;2023-07-02T01:21:11;12.00;;;3.42;;
29838;SDS011;18669;53.356;-1.464;2023-07-02T01:23:56;14.77;;;4.55;;
29838;SDS011;18669;53.356;-1.464;2023-07-02T01:26:42;10.05;;;3.53;;
29838;SDS011;18669;53.356;-1.464;2023-07-02T01:29:31;9.60;;;3.55;;
29838;SDS011;18669;53.356;-1.464;2023-07-02T01:32:16;15.15;;;4.07;;
29838;SDS011;18669;53.356;-1.464;2023-07-02T01:35:00;12.20;;;3.55;;
29838;SDS011;18669;53.356;-1.464;2023-07-02T01:37:45;13.85;;;4.35;;
29838;SDS011;18669;53.356;-1.464;2023-07-02T01:40:30;14.75;;;3.70;;
29838;SDS011;18669;53.356;-1.464;2023-07-02T01:43:15;13.75;;;4.40;;
29838;SDS011;18669;53.356;-1.464;2023-07-02T01:46:00;15.90;;;3.90;;
29838;SDS011;18669;53.356;-1.464;2023-07-02T01:48:46;15.90;;;4.15;;
29838;SDS011;18669;53.356;-1.464;2023-07-02T01:51:31;15.85;;;4.32;;
29838;SDS011;18669;53.356;-1.464;2023-07-02T01:54:17;14.70;;;4.15;;
29838;SDS011;18669;53.356;-1.464;2023-07-02T01:57:03;17.70;;;4.10;;
29838;SDS011;18669;53.356;-1.464;2023-07-02T01:59:48;9.88;;;3.90;;
29838;SDS011;18669;53.356;-1.464;2023-07-02T02:02:33;13.73;;;4.05;;
29838;SDS011;18669;53.356;-1.464;2023-07-02T02:05:17;16.77;;;4.53;;
29838;SDS011;18669;53.356;-1.464;2023-07-02T02:08:03;15.70;;;4.68;;
29838;SDS011;18669;53.356;-1.464;2023-07-02T02:10:47;10.05;;;4.65;;
29838;SDS011;18669;53.356;-1.464;2023-07-02T02:13:32;14.18;;;4.50;;
29838;SDS011;18669;53.356;-1.464;2023-07-02T02:16:17;12.88;;;4.20;;
29838;SDS011;18669;53.356;-1.464;2023-07-02T02:19:02;17.13;;;3.90;;
29838;SDS011;18669;53.356;-1.464;2023-07-02T02:21:48;15.82;;;4.05;;
29838;SDS011;18669;53.356;-1.464;2023-07-02T02:24:33;16.50;;;4.30;;
29838;SDS011;18669;53.356;-1.464;2023-07-02T02:27:18;13.52;;;3.92;;
29838;SDS011;18669;53.356;-1.464;2023-07-02T02:30:03;11.55;;;4.13;;
29838;SDS011;18669;53.356;-1.464;2023-07-02T02:32:48;11.93;;;4.32;;
29838;SDS011;18669;53.356;-1.464;2023-07-02T02:35:33;14.18;;;3.90;;
29838;SDS011;18669;53.356;-1.464;2023-07-02T02:38:18;11.63;;;3.78;;
29838;SDS011;18669;53.356;-1.464;2023-07-02T02:41:03;16.58;;;3.88;;
29838;SDS011;18669;53.356;-1.464;2023-07-02T02:43:48;12.13;;;4.00;;
29838;SDS011;18669;53.356;-1.464;2023-07-02T02:46:33;21.92;;;4.45;;
29838;SDS011;18669;53.356;-1.464;2023-07-02T02:49:17;13.50;;;3.80;;
29838;SDS011;18669;53.356;-1.464;2023-07-02T02:52:02;15.15;;;3.88;;
29838;SDS011;18669;53.356;-1.464;2023-07-02T02:54:47;13.52;;;4.07;;
29838;SDS011;18669;53.356;-1.464;2023-07-02T02:57:32;11.43;;;3.78;;
29838;SDS011;18669;53.356;-1.464;2023-07-02T03:00:18;11.95;;;3.78;;
29838;SDS011;18669;53.356;-1.464;2023-07-02T03:03:02;10.38;;;3.95;;
29838;SDS011;18669;53.356;-1.464;2023-07-02T03:05:47;16.20;;;4.18;;
29838;SDS011;18669;53.356;-1.464;2023-07-02T03:08:32;14.40;;;3.97;;
29838;SDS011;18669;53.356;-1.464;2023-07-02T03:11:17;16.65;;;3.92;;
29838;SDS011;18669;53.356;-1.464;2023-07-02T03:14:02;14.73;;;4.25;;
29838;SDS011;18669;53.356;-1.464;2023-07-02T03:16:47;15.18;;;4.28;;
29838;SDS011;18669;53.356;-1.464;2023-07-02T03:19:32;12.68;;;3.47;;
29838;SDS011;18669;53.356;-1.464;2023-07-02T03:22:16;10.13;;;3.78;;
29838;SDS011;18669;53.356;-1.464;2023-07-02T03:25:01;9.15;;;3.25;;
29838;SDS011;18669;53.356;-1.464;2023-07-02T03:27:46;9.77;;;3.55;;
29838;SDS011;18669;53.356;-1.464;2023-07-02T03:30:31;12.52;;;3.55;;
29838;SDS011;18669;53.356;-1.464;2023-07-02T03:33:16;11.77;;;3.70;;
29838;SDS011;18669;53.356;-1.464;2023-07-02T03:36:01;14.27;;;4.07;;
29838;SDS011;18669;53.356;-1.464;2023-07-02T03:38:45;15.73;;;3.70;;
29838;SDS011;18669;53.356;-1.464;2023-07-02T03:41:31;10.50;;;3.72;;
29838;SDS011;18669;53.356;-1.464;2023-07-02T03:44:16;12.15;;;3.80;;
29838;SDS011;18669;53.356;-1.464;2023-07-02T03:47:01;16.00;;;4.18;;
29838;SDS011;18669;53.356;-1.464;2023-07-02T03:49:45;14.35;;;4.28;;
29838;SDS011;18669;53.356;-1.464;2023-07-02T03:52:31;13.10;;;3.95;;
29838;SDS011;18669;53.356;-1.464;2023-07-02T03:55:16;9.38;;;3.25;;
29838;SDS011;18669;53.356;-1.464;2023-07-02T03:58:01;19.52;;;4.43;;
29838;SDS011;18669;53.356;-1.464;2023-07-02T04:00:46;12.05;;;3.55;;
29838;SDS011;18669;53.356;-1.464;2023-07-02T04:03:34;15.45;;;4.20;;
29838;SDS011;18669;53.356;-1.464;2023-07-02T04:06:19;13.02;;;4.90;;
29838;SDS011;18669;53.356;-1.464;2023-07-02T04:09:03;21.27;;;4.43;;
29838;SDS011;18669;53.356;-1.464;2023-07-02T04:11:48;21.17;;;4.65;;
29838;SDS011;18669;53.356;-1.464;2023-07-02T04:14:33;14.30;;;4.45;;
29838;SDS011;18669;53.356;-1.464;2023-07-02T04:17:18;12.82;;;4.32;;
29838;SDS011;18669;53.356;-1.464;2023-07-02T04:20:03;9.85;;;4.55;;
29838;SDS011;18669;53.356;-1.464;2023-07-02T04:22:48;14.70;;;3.92;;
29838;SDS011;18669;53.356;-1.464;2023-07-02T04:25:33;14.40;;;4.55;;
29838;SDS011;18669;53.356;-1.464;2023-07-02T04:28:18;12.65;;;3.95;;
29838;SDS011;18669;53.356;-1.464;2023-07-02T04:31:03;14.52;;;4.40;;
29838;SDS011;18669;53.356;-1.464;2023-07-02T04:33:48;15.70;;;4.25;;
29838;SDS011;18669;53.356;-1.464;2023-07-02T04:39:19;14.85;;;3.92;;
29838;SDS011;18669;53.356;-1.464;2023-07-02T04:42:04;18.10;;;4.25;;
29838;SDS011;18669;53.356;-1.464;2023-07-02T04:44:48;11.35;;;3.78;;
29838;SDS011;18669;53.356;-1.464;2023-07-02T04:47:34;11.27;;;3.83;;
29838;SDS011;18669;53.356;-1.464;2023-07-02T04:50:19;14.75;;;3.58;;
29838;SDS011;18669;53.356;-1.464;2023-07-02T04:53:05;15.77;;;4.45;;
29838;SDS011;18669;53.356;-1.464;2023-07-02T04:55:50;11.50;;;3.65;;
29838;SDS011;18669;53.356;-1.464;2023-07-02T04:58:35;15.82;;;3.88;;
29838;SDS011;18669;53.356;-1.464;2023-07-02T05:01:19;12.23;;;3.70;;
29838;SDS011;18669;53.356;-1.464;2023-07-02T05:04:05;15.20;;;3.90;;
29838;SDS011;18669;53.356;-1.464;2023-07-02T05:06:50;16.35;;;4.45;;
29838;SDS011;18669;53.356;-1.464;2023-07-02T05:09:35;14.30;;;3.97;;
29838;SDS011;18669;53.356;-1.464;2023-07-02T05:12:20;12.82;;;3.42;;
29838;SDS011;18669;53.356;-1.464;2023-07-02T05:15:05;11.80;;;3.67;;
29838;SDS011;18669;53.356;-1.464;2023-07-02T05:17:50;13.15;;;3.53;;
29838;SDS011;18669;53.356;-1.464;2023-07-02T05:20:35;15.70;;;3.55;;
29838;SDS011;18669;53.356;-1.464;2023-07-02T05:23:20;16.42;;;3.63;;
29838;SDS011;18669;53.356;-1.464;2023-07-02T05:26:05;10.45;;;3.38;;
29838;SDS011;18669;53.356;-1.464;2023-07-02T05:28:50;10.98;;;3.70;;
29838;SDS011;18669;53.356;-1.464;2023-07-02T05:31:35;14.45;;;3.30;;
29838;SDS011;18669;53.356;-1.464;2023-07-02T05:34:19;13.13;;;3.80;;
29838;SDS011;18669;53.356;-1.464;2023-07-02T05:37:05;14.20;;;3.45;;
29838;SDS011;18669;53.356;-1.464;2023-07-02T05:39:50;9.27;;;3.03;;
29838;SDS011;18669;53.356;-1.464;2023-07-02T05:42:35;9.82;;;3.53;;
29838;SDS011;18669;53.356;-1.464;2023-07-02T05:45:20;12.20;;;3.15;;
29838;SDS011;18669;53.356;-1.464;2023-07-02T05:48:05;16.88;;;3.05;;
29838;SDS011;18669;53.356;-1.464;2023-07-02T05:50:50;12.85;;;3.17;;
29838;SDS011;18669;53.356;-1.464;2023-07-02T05:53:36;12.90;;;3.40;;
29838;SDS011;18669;53.356;-1.464;2023-07-02T05:59:07;11.35;;;3.00;;
29838;SDS011;18669;53.356;-1.464;2023-07-02T06:01:52;12.05;;;3.70;;
29838;SDS011;18669;53.356;-1.464;2023-07-02T06:04:36;14.80;;;4.35;;
29838;SDS011;18669;53.356;-1.464;2023-07-02T06:07:21;10.35;;;4.20;;
29838;SDS011;18669;53.356;-1.464;2023-07-02T06:10:06;14.60;;;4.28;;
29838;SDS011;18669;53.356;-1.464;2023-07-02T06:12:52;13.77;;;4.47;;
29838;SDS011;18669;53.356;-1.464;2023-07-02T06:15:36;11.82;;;4.35;;
29838;SDS011;18669;53.356;-1.464;2023-07-02T06:18:21;13.40;;;4.90;;
29838;SDS011;18669;53.356;-1.464;2023-07-02T06:21:06;15.70;;;5.65;;
29838;SDS011;18669;53.356;-1.464;2023-07-02T06:23:51;13.43;;;5.57;;
29838;SDS011;18669;53.356;-1.464;2023-07-02T06:26:36;15.00;;;5.30;;
29838;SDS011;18669;53.356;-1.464;2023-07-02T06:29:21;11.57;;;5.03;;
29838;SDS011;18669;53.356;-1.464;2023-07-02T06:32:07;15.02;;;4.97;;
29838;SDS011;18669;53.356;-1.464;2023-07-02T06:34:51;14.57;;;5.90;;
29838;SDS011;18669;53.356;-1.464;2023-07-02T06:37:36;14.95;;;5.57;;
29838;SDS011;18669;53.356;-1.464;2023-07-02T06:40:21;14.65;;;6.18;;
29838;SDS011;18669;53.356;-1.464;2023-07-02T06:43:09;12.73;;;5.50;;
29838;SDS011;18669;53.356;-1.464;2023-07-02T06:45:54;14.75;;;6.40;;
29838;SDS011;18669;53.356;-1.464;2023-07-02T06:48:39;19.20;;;7.20;;
29838;SDS011;18669;53.356;-1.464;2023-07-02T06:51:23;14.07;;;6.00;;
29838;SDS011;18669;53.356;-1.464;2023-07-02T06:54:10;17.58;;;5.28;;
29838;SDS011;18669;53.356;-1.464;2023-07-02T06:56:55;14.60;;;5.07;;
29838;SDS011;18669;53.356;-1.464;2023-07-02T06:59:40;12.77;;;5.00;;
29838;SDS011;18669;53.356;-1.464;2023-07-02T07:02:25;10.88;;;4.88;;
29838;SDS011;18669;53.356;-1.464;2023-07-02T07:05:12;14.95;;;5.47;;
29838;SDS011;18669;53.356;-1.464;2023-07-02T07:07:57;17.15;;;4.85;;
29838;SDS011;18669;53.356;-1.464;2023-07-02T07:10:43;14.18;;;4.45;;
29838;SDS011;18669;53.356;-1.464;2023-07-02T07:13:29;11.45;;;3.88;;
29838;SDS011;18669;53.356;-1.464;2023-07-02T07:16:14;10.35;;;3.65;;
29838;SDS011;18669;53.356;-1.464;2023-07-02T07:18:59;13.40;;;3.75;;
29838;SDS011;18669;53.356;-1.464;2023-07-02T07:21:45;19.03;;;4.40;;
29838;SDS011;18669;53.356;-1.464;2023-07-02T07:24:31;13.85;;;4.68;;
29838;SDS011;18669;53.356;-1.464;2023-07-02T07:27:17;14.00;;;3.80;;
29838;SDS011;18669;53.356;-1.464;2023-07-02T07:30:03;15.40;;;5.20;;
29838;SDS011;18669;53.356;-1.464;2023-07-02T07:32:49;19.05;;;4.82;;
29838;SDS011;18669;53.356;-1.464;2023-07-02T07:35:35;12.68;;;5.03;;
29838;SDS011;18669;53.356;-1.464;2023-07-02T07:38:20;14.88;;;4.35;;
29838;SDS011;18669;53.356;-1.464;2023-07-02T07:41:05;14.15;;;5.07;;
29838;SDS011;18669;53.356;-1.464;2023-07-02T07:43:50;16.98;;;4.45;;
29838;SDS011;18669;53.356;-1.464;2023-07-02T07:46:38;15.38;;;4.53;;
29838;SDS011;18669;53.356;-1.464;2023-07-02T07:49:23;17.50;;;4.57;;
29838;SDS011;18669;53.356;-1.464;2023-07-02T07:52:09;14.60;;;4.10;;
29838;SDS011;18669;53.356;-1.464;2023-07-02T07:54:54;15.95;;;4.45;;
29838;SDS011;18669;53.356;-1.464;2023-07-02T07:57:38;12.02;;;4.20;;
29838;SDS011;18669;53.356;-1.464;2023-07-02T08:00:24;13.55;;;4.20;;
29838;SDS011;18669;53.356;-1.464;2023-07-02T08:03:10;22.70;;;5.20;;
29838;SDS011;18669;53.356;-1.464;2023-07-02T08:05:55;15.43;;;5.00;;
29838;SDS011;18669;53.356;-1.464;2023-07-02T08:08:40;12.75;;;4.38;;
29838;SDS011;18669;53.356;-1.464;2023-07-02T08:11:25;12.20;;;3.80;;
29838;SDS011;18669;53.356;-1.464;2023-07-02T08:14:10;18.77;;;4.10;;
29838;SDS011;18669;53.356;-1.464;2023-07-02T08:16:55;16.13;;;3.90;;
29838;SDS011;18669;53.356;-1.464;2023-07-02T08:19:40;16.75;;;3.72;;
29838;SDS011;18669;53.356;-1.464;2023-07-02T08:22:25;14.13;;;3.42;;
29838;SDS011;18669;53.356;-1.464;2023-07-02T08:25:09;21.20;;;3.83;;
29838;SDS011;18669;53.356;-1.464;2023-07-02T08:27:54;17.30;;;3.90;;
29838;SDS011;18669;53.356;-1.464;2023-07-02T08:30:39;13.65;;;3.95;;
29838;SDS011;18669;53.356;-1.464;2023-07-02T08:33:24;15.88;;;3.55;;
29838;SDS011;18669;53.356;-1.464;2023-07-02T08:36:09;16.60;;;3.88;;
29838;SDS011;18669;53.356;-1.464;2023-07-02T08:38:54;17.05;;;3.95;;
29838;SDS011;18669;53.356;-1.464;2023-07-02T08:41:43;21.38;;;4.18;;
29838;SDS011;18669;53.356;-1.464;2023-07-02T08:44:28;14.50;;;3.53;;
29838;SDS011;18669;53.356;-1.464;2023-07-02T08:47:13;14.68;;;3.22;;
29838;SDS011;18669;53.356;-1.464;2023-07-02T08:49:58;21.35;;;3.63;;
29838;SDS011;18669;53.356;-1.464;2023-07-02T08:52:43;22.60;;;2.60;;
29838;SDS011;18669;53.356;-1.464;2023-07-02T08:55:29;15.93;;;2.77;;
29838;SDS011;18669;53.356;-1.464;2023-07-02T08:58:14;13.52;;;2.58;;
29838;SDS011;18669;53.356;-1.464;2023-07-02T09:01:05;14.30;;;2.97;;
29838;SDS011;18669;53.356;-1.464;2023-07-02T09:04:00;14.05;;;2.67;;
29838;SDS011;18669;53.356;-1.464;2023-07-02T09:06:45;11.20;;;3.25;;
29838;SDS011;18669;53.356;-1.464;2023-07-02T09:09:32;7.05;;;2.30;;
29838;SDS011;18669;53.356;-1.464;2023-07-02T09:12:27;12.27;;;2.83;;
29838;SDS011;18669;53.356;-1.464;2023-07-02T09:15:16;17.15;;;3.28;;
29838;SDS011;18669;53.356;-1.464;2023-07-02T09:18:14;15.13;;;2.85;;
29838;SDS011;18669;53.356;-1.464;2023-07-02T09:21:06;16.58;;;2.85;;
29838;SDS011;18669;53.356;-1.464;2023-07-02T09:23:50;15.70;;;3.53;;
29838;SDS011;18669;53.356;-1.464;2023-07-02T09:26:35;15.80;;;3.00;;
29838;SDS011;18669;53.356;-1.464;2023-07-02T09:29:21;18.00;;;2.83;;
29838;SDS011;18669;53.356;-1.464;2023-07-02T09:32:12;7.25;;;2.70;;
29838;SDS011;18669;53.356;-1.464;2023-07-02T09:34:57;8.00;;;2.10;;
29838;SDS011;18669;53.356;-1.464;2023-07-02T09:37:43;10.48;;;2.30;;
29838;SDS011;18669;53.356;-1.464;2023-07-02T09:40:28;14.02;;;2.88;;
29838;SDS011;18669;53.356;-1.464;2023-07-02T09:43:14;12.82;;;2.55;;
29838;SDS011;18669;53.356;-1.464;2023-07-02T09:46:00;19.48;;;3.95;;
29838;SDS011;18669;53.356;-1.464;2023-07-02T09:48:45;15.13;;;2.90;;
29838;SDS011;18669;53.356;-1.464;2023-07-02T09:51:31;13.35;;;2.38;;
29838;SDS011;18669;53.356;-1.464;2023-07-02T09:54:16;7.85;;;2.25;;
29838;SDS011;18669;53.356;-1.464;2023-07-02T09:57:02;8.93;;;2.05;;
29838;SDS011;18669;53.356;-1.464;2023-07-02T09:59:48;28.73;;;2.65;;
29838;SDS011;18669;53.356;-1.464;2023-07-02T10:02:34;8.35;;;2.13;;
29838;SDS011;18669;53.356;-1.464;2023-07-02T10:08:15;10.82;;;1.85;;
29838;SDS011;18669;53.356;-1.464;2023-07-02T10:11:07;7.32;;;2.00;;
29838;SDS011;18669;53.356;-1.464;2023-07-02T10:13:59;12.63;;;2.80;;
29838;SDS011;18669;53.356;-1.464;2023-07-02T10:19:38;8.68;;;2.22;;
29838;SDS011;18669;53.356;-1.464;2023-07-02T10:25:41;6.93;;;2.45;;
29838;SDS011;18669;53.356;-1.464;2023-07-02T10:28:26;5.82;;;1.42;;
29838;SDS011;18669;53.356;-1.464;2023-07-02T10:31:18;6.75;;;1.40;;
29838;SDS011;18669;53.356;-1.464;2023-07-02T10:34:05;8.40;;;1.45;;
29838;SDS011;18669;53.356;-1.464;2023-07-02T10:36:53;10.10;;;1.50;;
29838;SDS011;18669;53.356;-1.464;2023-07-02T10:39:39;6.57;;;1.50;;
29838;SDS011;18669;53.356;-1.464;2023-07-02T10:42:29;10.23;;;1.73;;
29838;SDS011;18669;53.356;-1.464;2023-07-02T10:45:15;2.47;;;1.05;;
29838;SDS011;18669;53.356;-1.464;2023-07-02T10:48:01;5.13;;;1.40;;
29838;SDS011;18669;53.356;-1.464;2023-07-02T10:50:48;3.70;;;1.40;;
29838;SDS011;18669;53.356;-1.464;2023-07-02T10:53:33;4.63;;;1.48;;
29838;SDS011;18669;53.356;-1.464;2023-07-02T10:56:18;3.58;;;1.50;;
29838;SDS011;18669;53.356;-1.464;2023-07-02T10:59:03;4.28;;;1.58;;
29838;SDS011;18669;53.356;-1.464;2023-07-02T11:01:50;15.32;;;2.20;;
29838;SDS011;18669;53.356;-1.464;2023-07-02T11:04:35;10.90;;;2.08;;
29838;SDS011;18669;53.356;-1.464;2023-07-02T11:07:22;7.97;;;2.05;;
29838;SDS011;18669;53.356;-1.464;2023-07-02T11:10:08;10.23;;;2.10;;
29838;SDS011;18669;53.356;-1.464;2023-07-02T11:12:54;13.18;;;2.20;;
29838;SDS011;18669;53.356;-1.464;2023-07-02T11:15:39;7.88;;;1.67;;
29838;SDS011;18669;53.356;-1.464;2023-07-02T11:18:29;6.82;;;2.22;;
29838;SDS011;18669;53.356;-1.464;2023-07-02T11:21:16;6.13;;;2.00;;
29838;SDS011;18669;53.356;-1.464;2023-07-02T11:24:07;4.22;;;1.33;;
29838;SDS011;18669;53.356;-1.464;2023-07-02T11:26:54;5.80;;;1.55;;
29838;SDS011;18669;53.356;-1.464;2023-07-02T11:29:40;5.68;;;1.77;;
29838;SDS011;18669;53.356;-1.464;2023-07-02T11:32:25;7.43;;;1.95;;
29838;SDS011;18669;53.356;-1.464;2023-07-02T11:35:10;6.00;;;1.90;;
29838;SDS011;18669;53.356;-1.464;2023-07-02T11:37:55;7.18;;;1.83;;
29838;SDS011;18669;53.356;-1.464;2023-07-02T11:40:41;8.80;;;1.58;;
29838;SDS011;18669;53.356;-1.464;2023-07-02T11:43:25;4.28;;;1.38;;
29838;SDS011;18669;53.356;-1.464;2023-07-02T11:46:10;9.38;;;2.30;;
29838;SDS011;18669;53.356;-1.464;2023-07-02T11:48:55;16.98;;;3.40;;
29838;SDS011;18669;53.356;-1.464;2023-07-02T11:51:40;10.48;;;2.28;;
29838;SDS011;18669;53.356;-1.464;2023-07-02T11:54:30;10.40;;;2.55;;
29838;SDS011;18669;53.356;-1.464;2023-07-02T11:57:15;5.32;;;2.00;;
29838;SDS011;18669;53.356;-1.464;2023-07-02T12:00:00;4.38;;;1.42;;
29838;SDS011;18669;53.356;-1.464;2023-07-02T12:02:45;6.43;;;1.85;;
29838;SDS011;18669;53.356;-1.464;2023-07-02T12:05:30;5.22;;;1.20;;
29838;SDS011;18669;53.356;-1.464;2023-07-02T12:08:15;7.57;;;1.60;;
29838;SDS011;18669;53.356;-1.464;2023-07-02T12:11:00;6.03;;;1.65;;
29838;SDS011;18669;53.356;-1.464;2023-07-02T12:13:45;4.53;;;1.60;;
29838;SDS011;18669;53.356;-1.464;2023-07-02T12:16:30;6.05;;;1.85;;
29838;SDS011;18669;53.356;-1.464;2023-07-02T12:19:15;7.80;;;1.77;;
29838;SDS011;18669;53.356;-1.464;2023-07-02T12:21:59;8.82;;;1.35;;
29838;SDS011;18669;53.356;-1.464;2023-07-02T12:24:44;13.80;;;1.77;;
29838;SDS011;18669;53.356;-1.464;2023-07-02T12:27:29;7.85;;;2.00;;
29838;SDS011;18669;53.356;-1.464;2023-07-02T12:30:14;6.25;;;1.80;;
29838;SDS011;18669;53.356;-1.464;2023-07-02T12:33:02;7.22;;;1.80;;
29838;SDS011;18669;53.356;-1.464;2023-07-02T12:35:47;6.55;;;1.83;;
29838;SDS011;18669;53.356;-1.464;2023-07-02T12:38:32;6.78;;;1.85;;
29838;SDS011;18669;53.356;-1.464;2023-07-02T12:41:17;22.52;;;3.05;;
29838;SDS011;18669;53.356;-1.464;2023-07-02T12:44:02;17.13;;;2.58;;
29838;SDS011;18669;53.356;-1.464;2023-07-02T12:46:47;10.57;;;2.58;;
29838;SDS011;18669;53.356;-1.464;2023-07-02T12:49:31;8.57;;;2.95;;
29838;SDS011;18669;53.356;-1.464;2023-07-02T12:52:16;16.45;;;1.98;;
29838;SDS011;18669;53.356;-1.464;2023-07-02T12:55:01;12.02;;;2.90;;
29838;SDS011;18669;53.356;-1.464;2023-07-02T12:57:47;9.20;;;1.80;;
29838;SDS011;18669;53.356;-1.464;2023-07-02T13:00:31;6.40;;;1.95;;
29838;SDS011;18669;53.356;-1.464;2023-07-02T13:03:17;7.05;;;3.13;;
29838;SDS011;18669;53.356;-1.464;2023-07-02T13:06:02;7.32;;;1.98;;
29838;SDS011;18669;53.356;-1.464;2023-07-02T13:08:47;8.73;;;1.90;;
29838;SDS011;18669;53.356;-1.464;2023-07-02T13:11:32;3.67;;;1.52;;
29838;SDS011;18669;53.356;-1.464;2023-07-02T13:14:17;11.18;;;1.85;;
29838;SDS011;18669;53.356;-1.464;2023-07-02T13:17:02;5.63;;;1.88;;
29838;SDS011;18669;53.356;-1.464;2023-07-02T13:19:49;7.28;;;2.03;;
29838;SDS011;18669;53.356;-1.464;2023-07-02T13:22:34;10.90;;;2.28;;
29838;SDS011;18669;53.356;-1.464;2023-07-02T13:25:19;8.45;;;1.80;;
29838;SDS011;18669;53.356;-1.464;2023-07-02T13:28:04;7.32;;;1.50;;
29838;SDS011;18669;53.356;-1.464;2023-07-02T13:30:49;8.30;;;1.52;;
29838;SDS011;18669;53.356;-1.464;2023-07-02T13:33:34;7.75;;;1.60;;
29838;SDS011;18669;53.356;-1.464;2023-07-02T13:36:19;7.03;;;1.55;;
29838;SDS011;18669;53.356;-1.464;2023-07-02T13:39:04;10.80;;;1.42;;
29838;SDS011;18669;53.356;-1.464;2023-07-02T13:41:49;6.65;;;1.75;;
29838;SDS011;18669;53.356;-1.464;2023-07-02T13:44:34;7.13;;;1.30;;
29838;SDS011;18669;53.356;-1.464;2023-07-02T13:47:19;6.85;;;1.77;;
29838;SDS011;18669;53.356;-1.464;2023-07-02T13:50:04;4.85;;;1.70;;
29838;SDS011;18669;53.356;-1.464;2023-07-02T13:52:50;9.63;;;1.67;;
29838;SDS011;18669;53.356;-1.464;2023-07-02T13:55:35;7.35;;;1.70;;
29838;SDS011;18669;53.356;-1.464;2023-07-02T13:58:20;4.70;;;1.52;;
29838;SDS011;18669;53.356;-1.464;2023-07-02T14:01:05;10.73;;;1.80;;
29838;SDS011;18669;53.356;-1.464;2023-07-02T14:03:50;8.45;;;1.77;;
29838;SDS011;18669;53.356;-1.464;2023-07-02T14:06:36;6.32;;;1.80;;
29838;SDS011;18669;53.356;-1.464;2023-07-02T14:09:21;7.97;;;1.73;;
29838;SDS011;18669;53.356;-1.464;2023-07-02T14:12:06;7.18;;;1.85;;
29838;SDS011;18669;53.356;-1.464;2023-07-02T14:14:51;7.70;;;1.85;;
29838;SDS011;18669;53.356;-1.464;2023-07-02T14:17:36;5.30;;;1.58;;
29838;SDS011;18669;53.356;-1.464;2023-07-02T14:20:20;4.80;;;1.58;;
29838;SDS011;18669;53.356;-1.464;2023-07-02T14:23:05;4.10;;;1.45;;
29838;SDS011;18669;53.356;-1.464;2023-07-02T14:25:52;7.25;;;1.45;;
29838;SDS011;18669;53.356;-1.464;2023-07-02T14:28:37;8.32;;;1.70;;
29838;SDS011;18669;53.356;-1.464;2023-07-02T14:31:23;11.35;;;1.98;;
29838;SDS011;18669;53.356;-1.464;2023-07-02T14:34:07;7.25;;;1.98;;
29838;SDS011;18669;53.356;-1.464;2023-07-02T14:36:52;5.13;;;1.75;;
29838;SDS011;18669;53.356;-1.464;2023-07-02T14:39:37;3.28;;;1.30;;
29838;SDS011;18669;53.356;-1.464;2023-07-02T14:42:22;5.32;;;1.52;;
29838;SDS011;18669;53.356;-1.464;2023-07-02T14:45:07;4.35;;;1.48;;
29838;SDS011;18669;53.356;-1.464;2023-07-02T14:47:53;7.85;;;1.73;;
29838;SDS011;18669;53.356;-1.464;2023-07-02T14:53:29;6.28;;;2.20;;
29838;SDS011;18669;53.356;-1.464;2023-07-02T14:56:15;6.70;;;1.83;;
29838;SDS011;18669;53.356;-1.464;2023-07-02T14:59:00;3.85;;;1.13;;
29838;SDS011;18669;53.356;-1.464;2023-07-02T15:01:45;5.63;;;1.30;;
29838;SDS011;18669;53.356;-1.464;2023-07-02T15:04:30;10.20;;;1.85;;
29838;SDS011;18669;53.356;-1.464;2023-07-02T15:07:15;4.80;;;1.90;;
29838;SDS011;18669;53.356;-1.464;2023-07-02T15:10:00;7.45;;;1.70;;
29838;SDS011;18669;53.356;-1.464;2023-07-02T15:12:45;3.83;;;1.42;;
29838;SDS011;18669;53.356;-1.464;2023-07-02T15:15:31;14.07;;;1.95;;
29838;SDS011;18669;53.356;-1.464;2023-07-02T15:18:16;6.10;;;1.38;;
29838;SDS011;18669;53.356;-1.464;2023-07-02T15:21:01;5.60;;;1.75;;
29838;SDS011;18669;53.356;-1.464;2023-07-02T15:23:46;7.50;;;1.48;;
29838;SDS011;18669;53.356;-1.464;2023-07-02T15:26:31;6.82;;;1.63;;
29838;SDS011;18669;53.356;-1.464;2023-07-02T15:29:16;5.65;;;1.30;;
29838;SDS011;18669;53.356;-1.464;2023-07-02T15:32:01;8.73;;;1.63;;
29838;SDS011;18669;53.356;-1.464;2023-07-02T15:34:46;9.02;;;1.75;;
29838;SDS011;18669;53.356;-1.464;2023-07-02T15:37:31;5.47;;;1.30;;
29838;SDS011;18669;53.356;-1.464;2023-07-02T15:40:16;5.25;;;1.35;;
29838;SDS011;18669;53.356;-1.464;2023-07-02T15:43:00;9.57;;;1.73;;
29838;SDS011;18669;53.356;-1.464;2023-07-02T15:45:45;5.82;;;1.60;;
29838;SDS011;18669;53.356;-1.464;2023-07-02T15:48:31;5.38;;;1.90;;
29838;SDS011;18669;53.356;-1.464;2023-07-02T15:51:15;6.40;;;1.83;;
29838;SDS011;18669;53.356;-1.464;2023-07-02T15:54:00;6.40;;;1.70;;
29838;SDS011;18669;53.356;-1.464;2023-07-02T15:56:46;6.88;;;1.75;;
29838;SDS011;18669;53.356;-1.464;2023-07-02T15:59:31;5.28;;;1.50;;
29838;SDS011;18669;53.356;-1.464;2023-07-02T16:02:16;5.05;;;1.30;;
29838;SDS011;18669;53.356;-1.464;2023-07-02T16:05:01;4.40;;;1.25;;
29838;SDS011;18669;53.356;-1.464;2023-07-02T16:07:48;10.80;;;1.40;;
29838;SDS011;18669;53.356;-1.464;2023-07-02T16:10:33;5.70;;;1.55;;
29838;SDS011;18669;53.356;-1.464;2023-07-02T16:13:18;7.97;;;2.97;;
29838;SDS011;18669;53.356;-1.464;2023-07-02T16:16:03;4.47;;;1.40;;
29838;SDS011;18669;53.356;-1.464;2023-07-02T16:18:48;9.57;;;2.25;;
29838;SDS011;18669;53.356;-1.464;2023-07-02T16:21:33;10.63;;;1.98;;
29838;SDS011;18669;53.356;-1.464;2023-07-02T16:24:23;8.13;;;2.10;;
29838;SDS011;18669;53.356;-1.464;2023-07-02T16:27:09;6.30;;;1.63;;
29838;SDS011;18669;53.356;-1.464;2023-07-02T16:29:56;6.03;;;1.90;;